Time;durP1;ratioP1;P1;durP2;ratioP2;P2;SDS_P1;SDS_P2;PMS_P1;PMS_P2;Temp;Humidity;BMP_temperature;BMP_pressure;BME280_temperature;BME280_humidity;BME280_pressure;Samples;Min_cycle;Max_cycle;Signal;HPM_P1;HPM_P2
2023/09/13 00:00:10;;;;;;;5.00;1.70;;;;;;;13.68;100.00;100338.17;108793;1255;71314;-49
2023/09/13 00:02:43;;;;;;;3.60;2.10;;;;;;;13.67;100.00;100333.36;108708;1256;60457;-51
2023/09/13 00:05:10;;;;;;;4.20;2.10;;;;;;;13.67;100.00;100337.50;108753;1256;60631;-50
2023/09/13 00:07:38;;;;;;;1.80;1.70;;;;;;;13.68;100.00;100337.23;108741;1256;73925;-51
2023/09/13 00:10:06;;;;;;;3.50;2.00;;;;;;;13.71;100.00;100338.00;108821;1256;66150;-50
2023/09/13 00:12:33;;;;;;;3.20;1.70;;;;;;;13.73;100.00;100337.89;108813;1255;72655;-49
2023/09/13 00:15:00;;;;;;;2.20;1.80;;;;;;;13.76;100.00;100337.36;108738;1256;58832;-51
2023/09/13 00:17:28;;;;;;;2.60;1.80;;;;;;;13.78;100.00;100334.16;108608;1256;61012;-48
2023/09/13 00:19:56;;;;;;;5.70;2.50;;;;;;;13.79;100.00;100338.64;104723;1256;71845;-48
2023/09/13 00:22:23;;;;;;;3.30;3.00;;;;;;;13.79;100.00;100333.77;104793;1261;66609;-49
2023/09/13 00:24:50;;;;;;;3.80;2.30;;;;;;;13.79;100.00;100335.77;104811;1261;73193;-49
2023/09/13 00:27:18;;;;;;;6.40;3.50;;;;;;;13.77;100.00;100331.04;104588;1256;60021;-50
2023/09/13 00:29:45;;;;;;;3.20;2.40;;;;;;;13.74;100.00;100333.33;104791;1256;59983;-50
2023/09/13 00:32:13;;;;;;;4.10;2.20;;;;;;;13.71;100.00;100333.66;104448;1263;73404;-48
2023/09/13 00:34:40;;;;;;;5.30;2.20;;;;;;;13.67;100.00;100328.66;104628;1261;67605;-49
2023/09/13 00:37:07;;;;;;;2.40;2.20;;;;;;;13.63;100.00;100328.83;104613;1259;71422;-49
2023/09/13 00:39:35;;;;;;;3.00;2.70;;;;;;;13.60;100.00;100331.01;104786;1256;60725;-48
2023/09/13 00:42:02;;;;;;;4.00;2.00;;;;;;;13.57;100.00;100327.19;104613;1256;59643;-49
2023/09/13 00:44:30;;;;;;;3.40;2.10;;;;;;;13.53;100.00;100325.02;105076;1259;72956;-50
2023/09/13 00:46:58;;;;;;;6.40;3.10;;;;;;;13.51;100.00;100326.42;104960;1262;66812;-50
2023/09/13 00:49:25;;;;;;;2.40;2.10;;;;;;;13.49;100.00;100326.70;104691;1262;72418;-51
2023/09/13 00:51:54;;;;;;;4.40;2.50;;;;;;;13.48;100.00;100321.86;104443;1256;62336;-49
2023/09/13 00:54:21;;;;;;;4.00;2.60;;;;;;;13.47;100.00;100327.84;104854;1257;59665;-51
2023/09/13 00:56:49;;;;;;;4.50;2.90;;;;;;;13.46;100.00;100324.66;104485;1263;71847;-49
2023/09/13 00:59:16;;;;;;;4.80;2.40;;;;;;;13.45;100.00;100321.66;104500;1261;65584;-49
2023/09/13 01:01:44;;;;;;;5.40;3.30;;;;;;;13.44;100.00;100322.27;104492;1261;72649;-51
2023/09/13 01:04:11;;;;;;;4.50;3.40;;;;;;;13.42;100.00;100326.13;104765;1259;59753;-49
2023/09/13 01:06:39;;;;;;;4.00;3.60;;;;;;;13.40;100.00;100320.28;104697;1256;60162;-49
2023/09/13 01:09:07;;;;;;;9.70;3.10;;;;;;;13.38;100.00;100320.74;104769;1257;75929;-52
2023/09/13 01:11:34;;;;;;;3.80;2.80;;;;;;;13.36;100.00;100322.10;104986;1259;65734;-51
2023/09/13 01:14:02;;;;;;;2.50;2.30;;;;;;;13.34;100.00;100320.45;104793;1261;72971;-52
2023/09/13 01:17:12;;;;;;;3.00;2.50;;;;;;;13.31;100.00;100314.10;104764;1261;60417;-51
2023/09/13 01:19:50;;;;;;;2.70;1.90;;;;;;;13.27;100.00;100316.13;104839;1256;60418;-52
2023/09/13 01:22:20;;;;;;;2.80;2.00;;;;;;;13.24;100.00;100313.71;105233;1257;73707;-52
2023/09/13 01:25:07;;;;;;;2.80;2.00;;;;;;;13.23;100.00;100311.60;104902;1256;65675;-50
2023/09/13 01:27:38;;;;;;;8.50;2.10;;;;;;;13.22;100.00;100311.46;106721;1261;70521;-52
2023/09/13 01:30:07;;;;;;;5.00;2.20;;;;;;;13.21;100.00;100304.49;104899;1256;59743;-52
2023/09/13 01:32:35;;;;;;;5.60;3.30;;;;;;;13.20;100.00;100305.09;105233;1260;59556;-52
2023/09/13 01:35:02;;;;;;;6.00;3.30;;;;;;;13.19;100.00;100307.11;104733;1262;72791;-51
2023/09/13 01:37:30;;;;;;;4.30;2.80;;;;;;;13.19;100.00;100308.55;104576;1261;67408;-51
2023/09/13 01:39:58;;;;;;;8.20;3.30;;;;;;;13.18;100.00;100310.95;104537;1256;72678;-51
2023/09/13 01:42:25;;;;;;;5.70;3.80;;;;;;;13.17;100.00;100309.75;104632;1256;60091;-52
2023/09/13 01:44:52;;;;;;;3.10;2.70;;;;;;;13.15;100.00;100308.42;104418;1255;59745;-51
2023/09/13 01:47:20;;;;;;;5.10;3.10;;;;;;;13.12;100.00;100308.15;105458;1256;72224;-51
2023/09/13 01:49:47;;;;;;;4.00;3.20;;;;;;;13.09;100.00;100308.85;104636;1261;66813;-52
2023/09/13 01:52:15;;;;;;;2.20;2.00;;;;;;;13.07;100.00;100309.70;104463;1255;70691;-48
2023/09/13 01:54:42;;;;;;;6.20;2.10;;;;;;;13.05;100.00;100311.56;104525;1256;60392;-51
2023/09/13 01:57:10;;;;;;;4.10;2.80;;;;;;;13.04;100.00;100315.41;104550;1256;59637;-50
2023/09/13 01:59:37;;;;;;;2.10;1.80;;;;;;;13.02;100.00;100315.30;104753;1256;71783;-50
2023/09/13 02:02:05;;;;;;;3.70;2.30;;;;;;;13.02;100.00;100314.63;104769;1256;67892;-48
2023/09/13 02:04:32;;;;;;;2.40;2.20;;;;;;;13.01;100.00;100316.14;104676;1256;72664;-51
2023/09/13 02:07:01;;;;;;;2.30;2.00;;;;;;;13.00;100.00;100312.72;105165;1256;61838;-50
2023/09/13 02:09:29;;;;;;;2.10;2.00;;;;;;;13.00;100.00;100309.31;105398;1256;59638;-50
2023/09/13 02:11:56;;;;;;;4.60;2.50;;;;;;;13.00;100.00;100312.41;104823;1256;73068;-50
2023/09/13 02:14:24;;;;;;;3.50;3.20;;;;;;;12.97;100.00;100311.06;104759;1256;67512;-50
2023/09/13 02:16:51;;;;;;;3.00;2.80;;;;;;;12.94;100.00;100309.40;104505;1260;71209;-50
2023/09/13 02:19:18;;;;;;;4.20;3.80;;;;;;;12.92;100.00;100308.27;104550;1256;60950;-52
2023/09/13 02:21:46;;;;;;;3.00;2.70;;;;;;;12.91;100.00;100311.05;104544;1257;60930;-49
2023/09/13 02:24:14;;;;;;;3.50;3.20;;;;;;;12.87;100.00;100309.23;104658;1256;73452;-49
2023/09/13 02:26:41;;;;;;;3.30;3.10;;;;;;;12.81;100.00;100310.60;104555;1261;66298;-51
2023/09/13 02:29:08;;;;;;;2.90;2.50;;;;;;;12.77;100.00;100311.88;104610;1262;71450;-49
2023/09/13 02:31:36;;;;;;;4.50;2.30;;;;;;;12.73;100.00;100308.48;104523;1256;62881;-48
2023/09/13 02:34:04;;;;;;;3.40;2.50;;;;;;;12.70;100.00;100308.23;108736;1255;60529;-49
2023/09/13 02:36:31;;;;;;;3.10;2.80;;;;;;;12.69;100.00;100305.78;108670;1256;72566;-50
2023/09/13 02:38:59;;;;;;;4.80;2.30;;;;;;;12.67;100.00;100302.65;108697;1256;69621;-52
2023/09/13 02:41:27;;;;;;;2.00;1.50;;;;;;;12.67;100.00;100306.08;108745;1256;73059;-50
2023/09/13 02:43:54;;;;;;;4.00;2.30;;;;;;;12.67;100.00;100303.93;108794;1256;61612;-50
2023/09/13 02:46:21;;;;;;;4.10;2.90;;;;;;;12.67;100.00;100301.05;108784;1256;58776;-50
2023/09/13 02:48:49;;;;;;;4.10;2.30;;;;;;;12.67;100.00;100304.44;108765;1256;74302;-50
2023/09/13 02:51:16;;;;;;;4.20;2.90;;;;;;;12.68;100.00;100310.66;108724;1256;66694;-50
2023/09/13 02:53:43;;;;;;;4.70;3.20;;;;;;;12.68;100.00;100310.66;108732;1256;72412;-50
2023/09/13 02:56:11;;;;;;;5.80;3.50;;;;;;;12.68;100.00;100313.54;108700;1256;60009;-50
2023/09/13 02:58:38;;;;;;;5.00;4.50;;;;;;;12.68;100.00;100317.92;108709;1256;59861;-50
2023/09/13 03:01:10;;;;;;;4.70;3.20;;;;;;;12.66;100.00;100318.20;108764;1256;73875;-49
2023/09/13 03:03:39;;;;;;;4.30;3.40;;;;;;;12.62;100.00;100317.27;108682;1255;65628;-49
2023/09/13 03:06:12;;;;;;;5.30;2.60;;;;;;;12.59;100.00;100317.26;108640;1256;72730;-50
2023/09/13 03:08:41;;;;;;;2.50;2.10;;;;;;;12.56;100.00;100320.49;108715;1256;61866;-50
2023/09/13 03:11:09;;;;;;;2.70;1.90;;;;;;;12.52;100.00;100324.79;108810;1255;59002;-52
2023/09/13 03:13:37;;;;;;;2.90;2.10;;;;;;;12.50;100.00;100324.71;108708;1256;74221;-50
2023/09/13 03:16:20;;;;;;;2.40;2.20;;;;;;;12.47;100.00;100321.25;108797;1256;65589;-50
2023/09/13 03:18:50;;;;;;;2.90;1.90;;;;;;;12.45;100.00;100322.04;106178;1259;71468;-51
2023/09/13 03:21:20;;;;;;;3.50;3.20;;;;;;;12.44;100.00;100319.76;106333;1259;60460;-51
2023/09/13 03:23:48;;;;;;;3.50;3.10;;;;;;;12.43;100.00;100321.04;104585;1261;61517;-50
2023/09/13 03:26:25;;;;;;;4.00;2.90;;;;;;;12.43;100.00;100318.35;104324;1258;73820;-50
2023/09/13 03:28:54;;;;;;;10.10;3.50;;;;;;;12.41;100.00;100320.42;104497;1260;65531;-51
2023/09/13 03:31:24;;;;;;;4.10;3.60;;;;;;;12.38;100.00;100318.42;104371;1262;72868;-49
2023/09/13 03:33:53;;;;;;;3.60;3.10;;;;;;;12.35;100.00;100316.59;104847;1262;60492;-52
2023/09/13 03:36:20;;;;;;;4.10;3.20;;;;;;;12.31;100.00;100317.70;105899;1257;60591;-49
2023/09/13 03:38:51;;;;;;;3.30;2.50;;;;;;;12.27;100.00;100321.27;104801;1256;73736;-52
2023/09/13 03:41:21;;;;;;;9.10;3.00;;;;;;;12.25;100.00;100322.45;104531;1257;66805;-50
2023/09/13 03:43:49;;;;;;;5.70;3.00;;;;;;;12.22;100.00;100322.80;105334;1256;73132;-49
2023/09/13 03:46:17;;;;;;;2.60;2.40;;;;;;;12.19;100.00;100323.81;104667;1261;61677;-51
2023/09/13 03:48:45;;;;;;;2.70;2.40;;;;;;;12.18;100.00;100330.16;104811;1256;60554;-49
2023/09/13 03:51:16;;;;;;;3.60;2.30;;;;;;;12.17;100.00;100327.50;104479;1256;73824;-52
2023/09/13 03:53:45;;;;;;;3.00;2.10;;;;;;;12.17;100.00;100331.48;104750;1257;67635;-48
2023/09/13 03:56:13;;;;;;;4.20;2.70;;;;;;;12.17;100.00;100333.96;105333;1261;72728;-50
2023/09/13 03:58:40;;;;;;;3.30;3.00;;;;;;;12.18;100.00;100332.52;104536;1264;60442;-48
2023/09/13 04:01:07;;;;;;;4.30;3.00;;;;;;;12.18;100.00;100333.58;104642;1265;60433;-50
2023/09/13 04:03:36;;;;;;;4.70;4.00;;;;;;;12.20;100.00;100335.10;104579;1256;72542;-51
2023/09/13 04:06:03;;;;;;;8.30;4.60;;;;;;;12.23;100.00;100338.02;104961;1262;66309;-47
2023/09/13 04:08:31;;;;;;;3.90;3.60;;;;;;;12.26;100.00;100339.51;104431;1262;73139;-52
2023/09/13 04:10:58;;;;;;;3.90;2.50;;;;;;;12.28;100.00;100334.73;104673;1262;60718;-47
2023/09/13 04:13:26;;;;;;;5.00;3.10;;;;;;;12.31;100.00;100335.35;104678;1256;60975;-50
2023/09/13 04:15:53;;;;;;;4.60;2.60;;;;;;;12.33;100.00;100333.09;104750;1257;73108;-52
2023/09/13 04:18:21;;;;;;;7.80;2.90;;;;;;;12.36;100.00;100334.89;104799;1256;66727;-48
2023/09/13 04:20:48;;;;;;;15.20;3.70;;;;;;;12.41;100.00;100339.00;104724;1260;71763;-49
2023/09/13 04:23:16;;;;;;;4.80;2.30;;;;;;;12.46;100.00;100338.92;104867;1256;60633;-50
2023/09/13 04:25:43;;;;;;;4.50;3.30;;;;;;;12.51;100.00;100337.77;105074;1258;60470;-54
2023/09/13 04:28:11;;;;;;;32.50;5.60;;;;;;;12.58;100.00;100340.73;104839;1262;73035;-50
2023/09/13 04:30:38;;;;;;;36.50;5.90;;;;;;;12.64;100.00;100342.23;104633;1256;66839;-48
2023/09/13 04:33:06;;;;;;;41.20;5.90;;;;;;;12.70;100.00;100342.27;104869;1262;72487;-50
2023/09/13 04:35:34;;;;;;;37.60;6.20;;;;;;;12.78;100.00;100339.20;104758;1264;60560;-52
2023/09/13 04:38:02;;;;;;;25.30;5.70;;;;;;;12.92;100.00;100338.56;104700;1256;60562;-52
2023/09/13 04:40:30;;;;;;;27.80;5.70;;;;;;;13.07;100.00;100336.17;104397;1257;72547;-50
2023/09/13 04:43:04;;;;;;;47.40;7.60;;;;;;;13.23;100.00;100332.54;108704;1256;65625;-50
2023/09/13 04:45:33;;;;;;;41.30;7.20;;;;;;;13.37;100.00;100332.17;108683;1259;72598;-51
2023/09/13 04:48:00;;;;;;;15.50;6.40;;;;;;;13.50;100.00;100331.67;108638;1258;60713;-50
2023/09/13 04:50:29;;;;;;;12.90;7.90;;;;;;;13.64;100.00;100334.38;104604;1260;60612;-47
2023/09/13 04:52:56;;;;;;;9.60;6.00;;;;;;;13.79;100.00;100334.89;104654;1261;72605;-52
2023/09/13 04:55:26;;;;;;;6.60;5.70;;;;;;;13.92;100.00;100334.53;104786;1261;66306;-49
2023/09/13 04:57:54;;;;;;;10.60;6.60;;;;;;;14.05;100.00;100337.63;104750;1262;72732;-48
2023/09/13 05:00:26;;;;;;;7.80;6.10;;;;;;;14.18;100.00;100336.05;104914;1260;61820;-49
2023/09/13 05:02:54;;;;;;;10.50;7.30;;;;;;;14.30;100.00;100333.02;105636;1256;60622;-50
2023/09/13 05:05:22;;;;;;;11.40;7.10;;;;;;;14.44;100.00;100333.58;104802;1262;72625;-49
2023/09/13 05:07:49;;;;;;;16.50;7.50;;;;;;;14.58;100.00;100332.09;104669;1264;67595;-50
2023/09/13 05:10:16;;;;;;;9.80;6.20;;;;;;;14.71;100.00;100330.95;104775;1262;72712;-49
2023/09/13 05:12:44;;;;;;;10.20;6.20;;;;;;;14.84;100.00;100334.04;105034;1256;61654;-49
2023/09/13 05:15:11;;;;;;;8.90;6.60;;;;;;;14.96;100.00;100332.23;104750;1256;60376;-51
2023/09/13 05:17:38;;;;;;;8.50;5.80;;;;;;;15.07;100.00;100329.77;104710;1261;73839;-49
2023/09/13 05:20:07;;;;;;;13.50;7.90;;;;;;;15.19;100.00;100333.81;104679;1256;66625;-47
2023/09/13 05:22:34;;;;;;;7.20;6.60;;;;;;;15.29;100.00;100333.02;104790;1256;72804;-48
2023/09/13 05:25:01;;;;;;;9.10;7.30;;;;;;;15.39;100.00;100335.52;105082;1257;60565;-48
2023/09/13 05:27:29;;;;;;;10.60;6.80;;;;;;;15.47;100.00;100334.84;104613;1262;60517;-49
2023/09/13 05:29:56;;;;;;;8.90;5.40;;;;;;;15.55;100.00;100329.34;104965;1256;73830;-52
2023/09/13 05:32:23;;;;;;;6.40;5.60;;;;;;;15.64;100.00;100324.33;104886;1257;67366;-50
2023/09/13 05:34:51;;;;;;;7.80;4.90;;;;;;;15.71;100.00;100325.48;104791;1261;72406;-52
2023/09/13 05:37:18;;;;;;;4.40;3.30;;;;;;;15.80;100.00;100325.28;104629;1256;61667;-52
2023/09/13 05:39:45;;;;;;;7.30;3.10;;;;;;;15.89;100.00;100328.54;104740;1262;60413;-49
2023/09/13 05:42:13;;;;;;;8.80;2.60;;;;;;;15.98;100.00;100327.28;104833;1256;74281;-48
2023/09/13 05:44:40;;;;;;;8.80;3.50;;;;;;;16.07;100.00;100323.63;104804;1262;65581;-50
2023/09/13 05:47:07;;;;;;;7.30;4.00;;;;;;;16.17;100.00;100325.91;104643;1256;73069;-49
2023/09/13 05:49:35;;;;;;;5.20;4.10;;;;;;;16.26;100.00;100325.89;104644;1262;60541;-50
2023/09/13 05:52:02;;;;;;;9.20;4.00;;;;;;;16.36;100.00;100327.07;104853;1262;60441;-49
2023/09/13 05:54:30;;;;;;;13.90;3.90;;;;;;;16.44;100.00;100326.36;104597;1262;72718;-51
2023/09/13 05:56:57;;;;;;;7.70;3.70;;;;;;;16.51;100.00;100329.90;104498;1256;66136;-50
2023/09/13 05:59:24;;;;;;;12.00;4.70;;;;;;;16.58;100.00;100332.90;104597;1261;73023;-50
2023/09/13 06:01:52;;;;;;;4.40;4.00;;;;;;;16.65;100.00;100329.41;104765;1260;60537;-50
2023/09/13 06:04:19;;;;;;;5.30;2.60;;;;;;;16.72;100.00;100333.11;104736;1257;60367;-51
2023/09/13 06:06:46;;;;;;;9.90;3.90;;;;;;;16.80;100.00;100334.80;108708;1255;74312;-49
2023/09/13 06:09:14;;;;;;;9.00;3.20;;;;;;;16.86;100.00;100337.45;108894;1255;66745;-52
2023/09/13 06:11:41;;;;;;;3.70;3.40;;;;;;;16.93;100.00;100337.36;108767;1256;71595;-50
2023/09/13 06:14:09;;;;;;;4.80;2.80;;;;;;;17.00;100.00;100334.02;108704;1256;59995;-50
2023/09/13 06:16:38;;;;;;;9.50;3.70;;;;;;;17.08;100.00;100334.06;105567;1262;60438;-51
2023/09/13 06:19:06;;;;;;;7.30;3.90;;;;;;;17.14;100.00;100332.20;104747;1257;71619;-49
2023/09/13 06:21:33;;;;;;;3.40;3.10;;;;;;;17.21;100.00;100333.33;104714;1256;66792;-49
2023/09/13 06:24:00;;;;;;;6.30;2.90;;;;;;;17.28;100.00;100332.31;105736;1258;71465;-48
2023/09/13 06:26:28;;;;;;;3.70;2.30;;;;;;;17.36;100.00;100332.86;104679;1262;61747;-52
2023/09/13 06:28:55;;;;;;;4.40;2.70;;;;;;;17.44;100.00;100332.00;105608;1262;60081;-48
2023/09/13 06:31:23;;;;;;;4.90;2.70;;;;;;;17.52;100.00;100330.18;105513;1261;72875;-50
2023/09/13 06:34:00;;;;;;;5.60;2.80;;;;;;;17.61;100.00;100327.41;104428;1261;67278;-50
2023/09/13 06:36:41;;;;;;;6.60;3.00;;;;;;;17.70;100.00;100326.98;104630;1262;71488;-50
2023/09/13 06:39:09;;;;;;;5.60;2.80;;;;;;;17.77;100.00;100326.48;107730;1262;60704;-50
2023/09/13 06:41:37;;;;;;;4.00;2.90;;;;;;;17.85;100.00;100329.54;104631;1265;60439;-54
2023/09/13 06:44:09;;;;;;;3.70;2.30;;;;;;;17.93;100.00;100330.59;104798;1257;74712;-50
2023/09/13 06:46:37;;;;;;;5.50;2.10;;;;;;;18.03;100.00;100334.10;105223;1261;67482;-50
2023/09/13 06:49:06;;;;;;;4.50;2.30;;;;;;;18.11;100.00;100329.38;105105;1257;71779;-49
2023/09/13 06:51:34;;;;;;;6.80;2.10;;;;;;;18.19;100.00;100333.00;104819;1260;60492;-51
2023/09/13 06:54:05;;;;;;;3.90;3.50;;;;;;;18.27;100.00;100331.50;104594;1261;60606;-51
2023/09/13 06:56:35;;;;;;;6.40;2.70;;;;;;;18.35;100.00;100331.61;104719;1260;74451;-50
2023/09/13 06:59:06;;;;;;;4.30;2.40;;;;;;;18.44;100.00;100337.02;104778;1262;66947;-50
2023/09/13 07:01:37;;;;;;;5.00;2.10;;;;;;;18.52;100.00;100332.79;105976;1260;71446;-51
2023/09/13 07:04:25;;;;;;;2.40;1.70;;;;;;;18.62;100.00;100333.94;104783;1261;60545;-51
2023/09/13 07:07:01;;;;;;;7.00;2.60;;;;;;;18.70;100.00;100330.57;105060;1260;60541;-51
2023/09/13 07:09:29;;;;;;;6.70;2.90;;;;;;;18.78;100.00;100325.77;105148;1262;71571;-50
2023/09/13 07:11:56;;;;;;;8.50;2.60;;;;;;;18.88;100.00;100329.27;104756;1262;66963;-51
2023/09/13 07:14:23;;;;;;;4.70;2.10;;;;;;;18.98;100.00;100330.70;104901;1262;71057;-52
2023/09/13 07:16:50;;;;;;;5.20;1.50;;;;;;;19.06;100.00;100332.13;104621;1257;60632;-54
2023/09/13 07:19:18;;;;;;;4.40;1.80;;;;;;;19.14;100.00;100332.60;105379;1260;60512;-49
2023/09/13 07:21:46;;;;;;;8.80;1.90;;;;;;;19.23;100.00;100334.84;104675;1262;73843;-52
2023/09/13 07:24:13;;;;;;;2.00;1.50;;;;;;;19.32;100.00;100335.94;104886;1258;66898;-49
2023/09/13 07:26:40;;;;;;;3.60;2.10;;;;;;;19.42;100.00;100336.34;104727;1261;72574;-50
2023/09/13 07:29:08;;;;;;;2.40;2.00;;;;;;;19.50;100.00;100335.19;104801;1262;60651;-52
2023/09/13 07:31:35;;;;;;;9.50;2.10;;;;;;;19.58;100.00;100338.21;104888;1257;60482;-51
2023/09/13 07:34:03;;;;;;;3.60;1.90;;;;;;;19.67;100.00;100330.43;105132;1262;72868;-50
2023/09/13 07:36:30;;;;;;;2.80;1.90;;;;;;;19.75;100.00;100331.05;104561;1262;65544;-52
2023/09/13 07:39:00;;;;;;;3.60;1.50;;;;;;;19.83;100.00;100332.41;104783;1260;71462;-51
2023/09/13 07:41:27;;;;;;;3.40;1.70;;;;;;;19.92;100.00;100331.52;104924;1260;60559;-48
2023/09/13 07:43:55;;;;;;;3.60;1.70;;;;;;;20.02;100.00;100334.98;104655;1257;60616;-53
2023/09/13 07:46:22;;;;;;;4.30;1.60;;;;;;;20.10;100.00;100330.32;104755;1261;73765;-50
2023/09/13 07:48:50;;;;;;;3.10;1.70;;;;;;;20.19;100.00;100333.04;104877;1262;65806;-51
2023/09/13 07:51:17;;;;;;;2.70;1.70;;;;;;;20.29;100.00;100334.30;104741;1257;71377;-51
2023/09/13 07:53:45;;;;;;;5.10;2.00;;;;;;;20.38;100.00;100330.69;104835;1262;61102;-52
2023/09/13 07:56:13;;;;;;;6.30;1.20;;;;;;;20.47;100.00;100331.23;104739;1256;60424;-49
2023/09/13 07:58:41;;;;;;;6.80;1.70;;;;;;;20.56;100.00;100329.96;105521;1262;74312;-52
2023/09/13 08:01:09;;;;;;;7.30;2.00;;;;;;;20.65;100.00;100326.27;105056;1257;66942;-52
2023/09/13 08:03:36;;;;;;;23.90;6.80;;;;;;;20.74;100.00;100326.10;104551;1261;72795;-54
2023/09/13 08:06:04;;;;;;;4.80;2.40;;;;;;;20.83;100.00;100324.83;104604;1257;60492;-50
2023/09/13 08:08:33;;;;;;;5.90;1.70;;;;;;;20.93;100.00;100323.64;104786;1262;60671;-54
2023/09/13 08:11:00;;;;;;;4.40;1.80;;;;;;;21.01;100.00;100318.93;104895;1260;73658;-52
2023/09/13 08:13:28;;;;;;;2.50;2.10;;;;;;;21.09;100.00;100318.13;104891;1261;68500;-51
2023/09/13 08:15:55;;;;;;;6.30;1.20;;;;;;;21.18;100.00;100319.02;104673;1262;74651;-53
2023/09/13 08:18:23;;;;;;;4.70;1.60;;;;;;;21.28;100.00;100316.35;104597;1260;61790;-52
2023/09/13 08:20:50;;;;;;;8.20;1.30;;;;;;;21.39;100.00;100316.20;104573;1262;60447;-52
2023/09/13 08:23:18;;;;;;;7.90;1.50;;;;;;;21.47;100.00;100312.16;104845;1256;73788;-51
2023/09/13 08:25:45;;;;;;;11.90;2.00;;;;;;;21.56;100.00;100308.37;104564;1262;66806;-53
2023/09/13 08:28:13;;;;;;;3.60;1.90;;;;;;;21.63;100.00;100308.32;108830;1256;71787;-55
2023/09/13 08:30:40;;;;;;;8.10;1.70;;;;;;;21.71;100.00;100308.52;108727;1257;60111;-54
2023/09/13 08:33:10;;;;;;;8.30;1.10;;;;;;;21.78;100.00;100307.70;108758;1256;58510;-53
2023/09/13 08:35:38;;;;;;;3.20;1.70;;;;;;;21.84;100.00;100309.73;108848;1255;75455;-53
2023/09/13 08:38:05;;;;;;;4.70;1.30;;;;;;;21.92;100.00;100313.98;108794;1255;70568;-55
2023/09/13 08:40:33;;;;;;;4.80;1.60;;;;;;;22.01;100.00;100313.77;108737;1254;73573;-53
2023/09/13 08:43:00;;;;;;;6.30;1.30;;;;;;;22.09;100.00;100316.17;108787;1262;60408;-54
2023/09/13 08:45:28;;;;;;;5.30;1.70;;;;;;;22.17;100.00;100316.98;108532;1261;59922;-52
2023/09/13 08:48:01;;;;;;;6.00;1.50;;;;;;;22.25;100.00;100311.46;108719;1256;73019;-53
2023/09/13 08:50:29;;;;;;;;;;;;;;;22.33;100.00;100312.40;108724;1257;66743;-53
2023/09/13 08:53:00;;;;;;;6.60;1.30;;;;;;;22.41;100.00;100311.74;108797;1256;71477;-53
2023/09/13 08:55:29;;;;;;;8.40;2.70;;;;;;;22.48;100.00;100311.41;108727;1256;60193;-53
2023/09/13 08:57:56;;;;;;;6.40;2.60;;;;;;;22.57;100.00;100308.58;108757;1257;58769;-53
2023/09/13 09:00:25;;;;;;;8.30;2.60;;;;;;;22.64;100.00;100309.44;108671;1258;73726;-53
2023/09/13 09:02:53;;;;;;;2.90;2.30;;;;;;;22.70;100.00;100304.89;108666;1260;65525;-54
2023/09/13 09:05:20;;;;;;;5.50;2.40;;;;;;;22.74;100.00;100301.22;107053;1260;72752;-51
2023/09/13 09:07:47;;;;;;;2.70;2.00;;;;;;;22.80;100.00;100306.80;104679;1260;60523;-51
2023/09/13 09:10:15;;;;;;;3.60;2.30;;;;;;;22.87;100.00;100304.67;104615;1262;60378;-52
2023/09/13 09:12:45;;;;;;;7.60;2.40;;;;;;;22.93;100.00;100304.14;104536;1263;73740;-50
2023/09/13 09:15:13;;;;;;;4.70;1.80;;;;;;;22.97;100.00;100303.14;104769;1261;67150;-50
2023/09/13 09:17:41;;;;;;;4.80;1.70;;;;;;;22.99;100.00;100301.66;105231;1257;73311;-52
2023/09/13 09:20:09;;;;;;;6.00;3.00;;;;;;;23.02;100.00;100303.48;104647;1258;60714;-51
2023/09/13 09:22:36;;;;;;;6.70;2.40;;;;;;;23.05;100.00;100300.27;104553;1259;60150;-53
2023/09/13 09:25:10;;;;;;;2.70;1.70;;;;;;;23.10;100.00;100296.52;104321;1262;73905;-51
2023/09/13 09:27:39;;;;;;;6.60;1.50;;;;;;;23.20;100.00;100298.52;107350;1260;66533;-53
2023/09/13 09:30:07;;;;;;;1.60;1.20;;;;;;;23.29;100.00;100296.02;104479;1262;73761;-54
2023/09/13 09:32:36;;;;;;;6.20;1.10;;;;;;;23.36;100.00;100296.77;104922;1262;60529;-54
2023/09/13 09:35:05;;;;;;;4.40;1.10;;;;;;;23.44;100.00;100296.48;108631;1257;58959;-52
2023/09/13 09:37:33;;;;;;;3.10;1.30;;;;;;;23.51;100.00;100288.88;105098;1263;72744;-52
2023/09/13 09:40:01;;;;;;;4.20;1.40;;;;;;;23.58;100.00;100285.12;104705;1257;66744;-54
2023/09/13 09:42:29;;;;;;;2.40;0.80;;;;;;;23.64;100.00;100286.73;104395;1258;72749;-55
2023/09/13 09:44:56;;;;;;;5.20;1.10;;;;;;;23.69;100.00;100282.77;108753;1260;60455;-53
2023/09/13 09:47:24;;;;;;;9.80;1.00;;;;;;;23.74;100.00;100283.53;108639;1261;58811;-51
2023/09/13 09:49:51;;;;;;;3.00;1.10;;;;;;;23.81;100.00;100285.83;106254;1262;73893;-53
2023/09/13 09:52:19;;;;;;;4.10;0.90;;;;;;;23.88;100.00;100279.70;104592;1271;65681;-55
2023/09/13 09:54:47;;;;;;;3.80;0.90;;;;;;;23.93;100.00;100281.35;104712;1261;72454;-55
2023/09/13 09:57:22;;;;;;;5.90;0.70;;;;;;;23.98;100.00;100286.73;105356;1262;60454;-49
2023/09/13 09:59:49;;;;;;;5.60;1.50;;;;;;;24.03;100.00;100286.09;104759;1262;60498;-53
2023/09/13 10:02:17;;;;;;;4.40;1.20;;;;;;;24.10;100.00;100284.86;104828;1258;73845;-53
2023/09/13 10:04:45;;;;;;;2.40;1.10;;;;;;;24.16;100.00;100281.48;104787;1262;67570;-49
2023/09/13 10:07:13;;;;;;;3.80;1.10;;;;;;;24.21;100.00;100279.85;104637;1260;74872;-49
2023/09/13 10:09:42;;;;;;;2.60;0.90;;;;;;;24.24;100.00;100279.83;104419;1257;60402;-52
2023/09/13 10:12:11;;;;;;;2.90;0.90;;;;;;;24.29;100.00;100279.95;104773;1261;60689;-54
2023/09/13 10:14:40;;;;;;;3.20;0.90;;;;;;;24.34;100.00;100277.80;105010;1261;73803;-54
2023/09/13 10:17:07;;;;;;;3.00;0.80;;;;;;;24.39;100.00;100275.83;104697;1256;65531;-51
2023/09/13 10:19:35;;;;;;;2.10;0.90;;;;;;;24.44;100.00;100274.38;108219;1257;72654;-51
2023/09/13 10:22:03;;;;;;;4.70;0.80;;;;;;;24.49;100.00;100273.59;105037;1263;61087;-53
2023/09/13 10:24:36;;;;;;;7.50;1.00;;;;;;;24.53;100.00;100269.30;104894;1262;60544;-52
2023/09/13 10:27:07;;;;;;;6.30;0.90;;;;;;;24.57;100.00;100269.30;105006;1258;73085;-54
2023/09/13 10:29:40;;;;;;;3.60;1.00;;;;;;;24.62;100.00;100272.45;106111;1260;68997;-50
2023/09/13 10:32:09;;;;;;;4.00;0.80;;;;;;;24.67;100.00;100272.90;104795;1263;72480;-52
2023/09/13 10:34:41;;;;;;;4.20;0.80;;;;;;;24.71;100.00;100272.86;104556;1259;320082;-52
2023/09/13 10:38:45;;;;;;;1.50;0.80;;;;;;;24.78;100.00;100300.55;102028;1292;600344;-51
2023/09/13 10:41:17;;;;;;;7.20;1.20;;;;;;;24.80;100.00;100290.50;105159;1267;60148;-53
2023/09/13 10:43:46;;;;;;;7.30;1.40;;;;;;;24.82;100.00;100290.23;105285;1266;60455;-50
2023/09/13 10:46:14;;;;;;;8.30;1.20;;;;;;;24.83;100.00;100286.11;108188;1266;70840;-50
2023/09/13 10:48:42;;;;;;;2.00;0.80;;;;;;;24.85;100.00;100281.30;106638;1269;65706;-54
2023/09/13 10:51:10;;;;;;;3.10;0.70;;;;;;;24.89;100.00;100276.34;104775;1270;147546;-52
2023/09/13 10:53:38;;;;;;;4.80;0.70;;;;;;;24.95;100.00;100272.34;108375;1265;60039;-54
2023/09/13 10:56:05;;;;;;;5.30;0.70;;;;;;;25.01;100.00;100274.45;105831;1272;60061;-53
2023/09/13 10:58:34;;;;;;;4.50;0.80;;;;;;;25.07;100.00;100274.27;105616;1263;72694;-53
2023/09/13 11:01:01;;;;;;;6.30;0.80;;;;;;;25.12;100.00;100273.33;104306;1269;67497;-52
2023/09/13 11:03:28;;;;;;;4.40;0.70;;;;;;;25.17;100.00;100271.19;104190;1266;71163;-52
2023/09/13 11:05:57;;;;;;;4.30;0.70;;;;;;;25.21;100.00;100267.83;104463;1269;60155;-51
2023/09/13 11:08:29;;;;;;;1.80;0.70;;;;;;;25.24;100.00;100264.54;104112;1263;60273;-53
2023/09/13 11:11:16;;;;;;;1.00;0.60;;;;;;;25.28;100.00;100261.77;108348;1263;73438;-54
2023/09/13 11:13:45;;;;;;;3.20;0.60;;;;;;;25.32;100.00;100268.02;105408;1267;65823;-54
2023/09/13 11:16:16;;;;;;;2.60;0.60;;;;;;;25.35;100.00;100261.23;104399;1269;72713;-55